createdAt,value
2017-08-01T00:00:28.502Z,4.00
2017-08-01T00:02:56.863Z,4.30
2017-08-01T00:05:25.198Z,4.53
2017-08-01T00:07:53.963Z,4.23
2017-08-01T00:10:22.313Z,3.67
2017-08-01T00:12:51.437Z,3.93
2017-08-01T00:15:20.376Z,4.43
2017-08-01T00:17:48.701Z,4.10
2017-08-01T00:20:17.039Z,4.37
2017-08-01T00:22:45.701Z,3.60
2017-08-01T00:25:14.038Z,4.07
2017-08-01T00:27:42.377Z,4.27
2017-08-01T00:30:11.026Z,4.43
2017-08-01T00:32:39.368Z,4.50
2017-08-01T00:35:07.729Z,4.23
2017-08-01T00:37:37.396Z,4.10
2017-08-01T00:40:05.747Z,4.90
2017-08-01T00:42:34.086Z,4.20
2017-08-01T00:45:02.839Z,4.37
2017-08-01T00:47:31.170Z,4.30
2017-08-01T00:49:59.498Z,4.63
2017-08-01T00:52:28.142Z,4.13
2017-08-01T00:54:57.257Z,4.80
2017-08-01T00:57:25.568Z,3.83
2017-08-01T00:59:54.529Z,3.73
2017-08-01T01:02:22.898Z,4.47
2017-08-01T01:04:51.227Z,3.97
2017-08-01T01:07:19.871Z,3.90
2017-08-01T01:09:48.215Z,4.20
2017-08-01T01:12:16.558Z,4.13
2017-08-01T01:14:45.416Z,4.53
2017-08-01T01:17:13.804Z,3.70
2017-08-01T01:19:42.198Z,4.80
2017-08-01T01:22:10.929Z,3.97
2017-08-01T01:24:39.328Z,4.10
2017-08-01T01:27:07.671Z,3.50
2017-08-01T01:29:36.919Z,4.70
2017-08-01T01:32:05.267Z,3.80
2017-08-01T01:34:33.602Z,4.20
2017-08-01T01:37:02.255Z,4.57
2017-08-01T01:39:30.611Z,4.00
2017-08-01T01:41:58.970Z,4.27
2017-08-01T01:44:28.356Z,3.30
2017-08-01T01:46:56.713Z,3.63
2017-08-01T01:49:25.069Z,3.50
2017-08-01T01:51:54.704Z,3.50
2017-08-01T01:54:23.064Z,3.90
2017-08-01T01:56:51.402Z,3.40
2017-08-01T01:59:20.339Z,3.67
2017-08-01T02:01:48.695Z,3.80
2017-08-01T02:04:17.803Z,3.43
2017-08-01T02:06:47.427Z,3.80
2017-08-01T02:09:15.781Z,4.33
2017-08-01T02:11:44.905Z,3.10
2017-08-01T02:14:13.532Z,4.10
2017-08-01T02:16:41.881Z,4.57
2017-08-01T02:19:10.223Z,4.30
2017-08-01T02:21:38.852Z,3.80
2017-08-01T02:24:07.208Z,4.30
2017-08-01T02:26:35.586Z,3.57
2017-08-01T02:29:04.579Z,4.27
2017-08-01T02:31:33.087Z,3.53
2017-08-01T02:34:01.419Z,3.73
2017-08-01T02:36:30.231Z,3.90
2017-08-01T02:38:58.583Z,3.90
2017-08-01T02:41:27.744Z,3.97
2017-08-01T02:43:56.491Z,3.70
2017-08-01T02:46:24.843Z,4.10
2017-08-01T02:48:53.959Z,4.17
2017-08-01T02:51:23.538Z,4.13
2017-08-01T02:53:51.896Z,4.30
2017-08-01T02:56:20.239Z,3.40
2017-08-01T02:58:49.025Z,3.10
2017-08-01T03:01:17.408Z,3.07
2017-08-01T03:03:45.736Z,3.40
2017-08-01T03:06:14.467Z,3.40
2017-08-01T03:08:42.801Z,3.77
2017-08-01T03:11:11.152Z,3.67
2017-08-01T03:13:40.106Z,3.53
2017-08-01T03:16:08.449Z,3.30
2017-08-01T03:18:36.808Z,3.70
2017-08-01T03:21:05.562Z,4.17
2017-08-01T03:23:33.913Z,3.80
2017-08-01T03:26:03.023Z,3.77
2017-08-01T03:28:31.848Z,3.43
2017-08-01T03:31:00.224Z,3.43
2017-08-01T03:33:28.564Z,3.60
2017-08-01T03:35:57.464Z,3.70
2017-08-01T03:38:25.834Z,3.40
2017-08-01T03:40:54.961Z,3.70
2017-08-01T03:43:23.608Z,3.90
2017-08-01T03:45:51.929Z,4.10
2017-08-01T03:48:20.351Z,3.87
2017-08-01T03:50:49.205Z,3.33
2017-08-01T03:53:17.635Z,3.80
2017-08-01T03:55:46.000Z,4.27
2017-08-01T03:58:14.803Z,3.87
2017-08-01T04:00:43.186Z,4.13
2017-08-01T04:03:11.551Z,4.07
2017-08-01T04:05:40.451Z,4.13
2017-08-01T04:08:08.831Z,4.90
2017-08-01T04:10:37.314Z,4.00
2017-08-01T04:13:06.146Z,4.63
2017-08-01T04:15:34.554Z,4.23
2017-08-01T04:18:02.970Z,4.60
2017-08-01T04:20:32.673Z,4.67
2017-08-01T04:23:01.053Z,3.93
2017-08-01T04:25:29.441Z,5.03
2017-08-01T04:27:59.134Z,4.17
2017-08-01T04:30:27.529Z,4.23
2017-08-01T04:32:56.002Z,3.70
2017-08-01T04:35:24.788Z,3.60
2017-08-01T04:37:53.325Z,4.40
2017-08-01T04:40:21.660Z,4.60
2017-08-01T04:42:50.490Z,4.07
2017-08-01T04:45:18.925Z,3.80
2017-08-01T04:47:47.326Z,4.30
2017-08-01T04:50:16.087Z,3.97
2017-08-01T04:52:44.551Z,4.73
2017-08-01T04:55:12.945Z,4.20
2017-08-01T04:57:41.946Z,3.73
2017-08-01T05:00:10.384Z,4.47
2017-08-01T05:02:38.807Z,4.40
2017-08-01T05:05:07.646Z,4.13
2017-08-01T05:07:36.048Z,3.40
2017-08-01T05:10:04.409Z,3.57
2017-08-01T05:12:33.367Z,3.57
2017-08-01T05:15:01.808Z,3.80
2017-08-01T05:17:30.208Z,3.77
2017-08-01T05:19:59.101Z,4.23
2017-08-01T05:22:27.467Z,3.30
2017-08-01T05:24:55.805Z,4.17
2017-08-01T05:27:24.693Z,3.00
2017-08-01T05:29:53.044Z,3.47
2017-08-01T05:32:22.157Z,4.10
2017-08-01T05:34:50.942Z,3.93
2017-08-01T05:37:19.271Z,5.70
2017-08-01T05:39:47.594Z,4.30
2017-08-01T05:42:16.397Z,4.73
2017-08-01T05:44:44.722Z,4.83
2017-08-01T05:47:13.064Z,3.60
2017-08-01T05:49:42.043Z,4.30
2017-08-01T05:52:10.388Z,4.17
2017-08-01T05:54:38.744Z,4.37
2017-08-01T05:57:07.367Z,4.23
2017-08-01T05:59:36.478Z,3.90
2017-08-01T06:02:04.825Z,4.10
2017-08-01T06:04:33.748Z,4.73
2017-08-01T06:07:02.092Z,3.90
2017-08-01T06:09:30.448Z,4.77
2017-08-01T06:11:59.400Z,4.03
2017-08-01T06:14:27.738Z,3.93
2017-08-01T06:16:56.079Z,4.17
2017-08-01T06:19:24.745Z,4.03
2017-08-01T06:21:53.095Z,3.90
2017-08-01T06:24:21.491Z,4.13
2017-08-01T06:26:50.916Z,5.00
2017-08-01T06:29:19.264Z,4.73
2017-08-01T06:31:48.389Z,3.93
2017-08-01T06:34:17.197Z,4.50
2017-08-01T06:36:45.531Z,4.40
2017-08-01T06:39:13.891Z,4.80
2017-08-01T06:41:42.631Z,4.23
2017-08-01T06:44:10.979Z,4.70
2017-08-01T06:46:40.095Z,3.80
2017-08-01T06:49:08.853Z,3.97
2017-08-01T06:51:37.193Z,4.73
2017-08-01T06:54:05.553Z,3.57
2017-08-01T06:56:34.364Z,15.70
2017-08-01T06:59:02.739Z,4.13
2017-08-01T07:01:31.080Z,4.80
2017-08-01T07:03:59.966Z,4.47
2017-08-01T07:06:28.320Z,4.20
2017-08-01T07:08:56.691Z,3.27
2017-08-01T07:11:25.520Z,3.73
2017-08-01T07:13:54.632Z,4.37
2017-08-01T07:16:22.989Z,4.43
2017-08-01T07:18:52.106Z,3.40
2017-08-01T07:21:20.429Z,3.37
2017-08-01T07:23:48.789Z,3.60
2017-08-01T07:26:17.390Z,4.00
2017-08-01T07:28:45.727Z,3.53
2017-08-01T07:31:14.074Z,3.50
2017-08-01T07:33:42.722Z,3.73
2017-08-01T07:36:11.052Z,3.90
2017-08-01T07:38:39.432Z,4.10
2017-08-01T07:41:08.442Z,3.70
2017-08-01T07:43:36.806Z,4.10
2017-08-01T07:46:05.143Z,4.00
2017-08-01T07:48:33.899Z,4.10
2017-08-01T07:51:02.262Z,3.60
2017-08-01T07:53:30.608Z,4.30
2017-08-01T07:55:59.530Z,3.43
2017-08-01T07:58:27.858Z,3.93
2017-08-01T08:00:56.178Z,3.83
2017-08-01T08:03:24.967Z,3.63
2017-08-01T08:05:53.297Z,3.87
2017-08-01T08:08:21.620Z,3.43
2017-08-01T08:10:50.424Z,3.00
2017-08-01T08:13:18.773Z,3.67
2017-08-01T08:15:47.890Z,4.27
2017-08-01T08:18:16.673Z,3.97
2017-08-01T08:20:45.025Z,4.00
2017-08-01T08:23:13.379Z,4.00
2017-08-01T08:25:42.151Z,3.63
2017-08-01T08:28:10.511Z,3.90
2017-08-01T08:30:38.860Z,3.70
2017-08-01T08:33:07.826Z,3.70
2017-08-01T08:35:36.164Z,3.70
2017-08-01T08:38:04.500Z,3.40
2017-08-01T08:40:33.105Z,3.70
2017-08-01T08:43:02.236Z,3.40
2017-08-01T08:45:30.596Z,4.40
2017-08-01T08:47:59.717Z,4.00
2017-08-01T08:50:28.103Z,3.50
2017-08-01T08:52:56.499Z,3.47
2017-08-01T08:55:25.342Z,3.30
2017-08-01T08:57:53.690Z,3.17
2017-08-01T09:00:22.026Z,4.13
2017-08-01T09:02:50.639Z,3.33
2017-08-01T09:05:19.008Z,3.83
2017-08-01T09:07:47.358Z,3.80
2017-08-01T09:10:16.448Z,4.17
2017-08-01T09:12:44.779Z,4.10
2017-08-01T09:15:13.106Z,3.73
2017-08-01T09:17:41.756Z,3.50
2017-08-01T09:20:10.105Z,3.30
2017-08-01T09:22:38.437Z,2.90
2017-08-01T09:25:07.111Z,2.90
2017-08-01T09:27:35.460Z,3.60
2017-08-01T09:30:03.797Z,4.03
2017-08-01T09:32:32.824Z,3.80
2017-08-01T09:35:01.472Z,3.80
2017-08-01T09:37:29.942Z,3.30
2017-08-01T09:39:59.475Z,3.60
2017-08-01T09:42:27.820Z,4.10
2017-08-01T09:44:56.208Z,4.40
2017-08-01T09:47:24.846Z,4.27
2017-08-01T09:49:53.176Z,4.30
2017-08-01T09:52:21.502Z,4.20
2017-08-01T09:54:50.566Z,4.23
2017-08-01T09:57:18.973Z,3.90
2017-08-01T09:59:47.334Z,3.50
2017-08-01T10:02:15.930Z,4.23
2017-08-01T10:04:44.252Z,4.87
2017-08-01T10:07:12.597Z,4.30
2017-08-01T10:09:41.467Z,4.60
2017-08-01T10:12:09.809Z,4.27
2017-08-01T10:14:38.143Z,5.03
2017-08-01T10:17:06.997Z,4.37
2017-08-01T10:19:35.343Z,4.30
2017-08-01T10:22:03.691Z,4.17
2017-08-01T10:24:32.331Z,4.83
2017-08-01T10:27:01.564Z,4.90
2017-08-01T10:29:29.889Z,5.03
2017-08-01T10:31:58.778Z,4.47
2017-08-01T10:34:27.122Z,4.60
2017-08-01T10:36:55.840Z,4.77
2017-08-01T10:39:24.855Z,5.27
2017-08-01T10:41:53.208Z,5.47
2017-08-01T10:44:21.565Z,5.03
2017-08-01T10:46:50.235Z,5.30
2017-08-01T10:49:18.583Z,5.50
2017-08-01T10:51:46.934Z,5.50
2017-08-01T10:54:15.598Z,5.70
2017-08-01T10:56:43.925Z,5.10
2017-08-01T10:59:12.319Z,5.30
2017-08-01T11:01:41.160Z,4.80
2017-08-01T11:04:09.511Z,5.20
2017-08-01T11:06:37.938Z,5.10
2017-08-01T11:09:06.599Z,5.20
2017-08-01T11:11:34.969Z,5.00
2017-08-01T11:14:03.361Z,5.00
2017-08-01T11:16:32.238Z,4.80
2017-08-01T11:19:00.612Z,5.10
2017-08-01T11:21:29.047Z,5.53
2017-08-01T11:23:58.040Z,4.90
2017-08-01T11:26:26.394Z,4.70
2017-08-01T11:28:54.750Z,4.50
2017-08-01T11:31:23.606Z,4.27
2017-08-01T11:33:51.959Z,5.73
2017-08-01T11:36:20.289Z,4.67
2017-08-01T11:38:48.998Z,4.50
2017-08-01T11:41:17.396Z,4.13
2017-08-01T11:43:45.744Z,4.43
2017-08-01T11:46:14.767Z,4.80
2017-08-01T11:48:43.172Z,5.20
2017-08-01T11:51:11.608Z,4.40
2017-08-01T11:53:40.608Z,4.70
2017-08-01T11:56:09.796Z,4.40
2017-08-01T11:58:38.216Z,4.67
2017-08-01T12:01:07.243Z,5.27
2017-08-01T12:03:35.621Z,4.37
2017-08-01T12:06:04.114Z,4.70
2017-08-01T12:08:33.067Z,4.60
2017-08-01T12:11:01.457Z,4.83
2017-08-01T12:13:29.802Z,5.23
2017-08-01T12:15:58.478Z,5.60
2017-08-01T12:18:26.825Z,5.20
2017-08-01T12:20:55.226Z,5.10
2017-08-01T12:23:24.023Z,5.40
2017-08-01T12:25:52.422Z,5.03
2017-08-01T12:28:20.782Z,4.77
2017-08-01T12:30:50.382Z,5.47
2017-08-01T12:33:18.759Z,5.33
2017-08-01T12:35:47.132Z,5.37
2017-08-01T12:38:15.749Z,6.10
2017-08-01T12:40:44.886Z,6.13
2017-08-01T12:43:13.267Z,6.20
2017-08-01T12:45:41.987Z,6.27
2017-08-01T12:48:10.331Z,5.77
2017-08-01T12:50:38.674Z,6.90
2017-08-01T12:53:07.487Z,6.90
2017-08-01T12:55:35.830Z,6.83
2017-08-01T12:58:04.173Z,6.83
2017-08-01T13:00:32.821Z,7.00
2017-08-01T13:03:01.165Z,7.50
2017-08-01T13:05:29.535Z,7.67
2017-08-01T13:07:58.264Z,7.17
2017-08-01T13:10:26.602Z,7.23
2017-08-01T13:12:54.925Z,8.80
2017-08-01T13:15:24.122Z,7.93
2017-08-01T13:17:52.462Z,7.13
2017-08-01T13:20:20.831Z,7.57
2017-08-01T13:22:49.580Z,7.10
2017-08-01T13:25:17.946Z,7.40
2017-08-01T13:27:46.288Z,7.93
2017-08-01T13:30:15.145Z,7.23
2017-08-01T13:32:43.492Z,8.20
2017-08-01T13:35:11.842Z,7.80
2017-08-01T13:37:40.618Z,7.17
2017-08-01T13:40:08.973Z,7.23
2017-08-01T13:42:37.336Z,7.57
2017-08-01T13:45:06.142Z,8.20
2017-08-01T13:47:34.501Z,7.67
2017-08-01T13:50:02.837Z,8.03
2017-08-01T13:52:31.747Z,8.30
2017-08-01T13:55:00.095Z,8.30
2017-08-01T13:57:28.448Z,8.70
2017-08-01T13:59:57.658Z,8.73
2017-08-01T14:02:26.015Z,8.77
2017-08-01T14:04:54.353Z,8.40
2017-08-01T14:07:23.255Z,8.73
2017-08-01T14:09:51.592Z,9.67
2017-08-01T14:12:19.938Z,9.60
2017-08-01T14:14:48.704Z,9.47
2017-08-01T14:17:17.051Z,9.30
2017-08-01T14:19:45.410Z,10.10
2017-08-01T14:22:14.342Z,10.23
2017-08-01T14:24:42.685Z,10.00
2017-08-01T14:27:11.029Z,9.47
2017-08-01T14:29:39.687Z,9.83
2017-08-01T14:32:08.039Z,10.27
2017-08-01T14:34:36.395Z,10.13
2017-08-01T14:37:05.071Z,10.70
2017-08-01T14:39:33.443Z,11.07
2017-08-01T14:42:01.822Z,12.13
2017-08-01T14:44:30.554Z,10.40
2017-08-01T14:46:58.902Z,12.67
2017-08-01T14:49:27.289Z,11.53
2017-08-01T14:51:55.930Z,13.20
2017-08-01T14:54:24.315Z,11.03
2017-08-01T14:56:52.651Z,10.27
2017-08-01T14:59:21.370Z,8.67
2017-08-01T15:01:49.714Z,6.67
2017-08-01T15:04:18.073Z,7.90
2017-08-01T15:06:46.954Z,7.60
2017-08-01T15:09:15.300Z,7.07
2017-08-01T15:11:43.707Z,6.40
2017-08-01T15:14:12.470Z,7.63
2017-08-01T15:16:40.805Z,9.20
2017-08-01T15:19:09.149Z,6.80
2017-08-01T15:21:37.919Z,8.83
2017-08-01T15:24:06.304Z,9.27
2017-08-01T15:26:34.662Z,11.07
2017-08-01T15:29:03.394Z,11.17
2017-08-01T15:31:31.735Z,11.00
2017-08-01T15:34:00.194Z,10.60
2017-08-01T15:36:28.885Z,10.80
2017-08-01T15:38:58.010Z,8.73
2017-08-01T15:41:26.377Z,9.20
2017-08-01T15:43:55.064Z,9.03
2017-08-01T15:46:23.402Z,8.90
2017-08-01T15:48:51.763Z,8.90
2017-08-01T15:51:20.703Z,9.40
2017-08-01T15:53:49.049Z,11.33
2017-08-01T15:56:23.295Z,10.53
2017-08-01T15:58:51.709Z,11.63
2017-08-01T16:01:20.073Z,13.90
2017-08-01T16:03:48.918Z,9.80
2017-08-01T16:06:17.274Z,7.90
2017-08-01T16:08:45.645Z,9.53
2017-08-01T16:11:14.558Z,9.00
2017-08-01T16:13:42.929Z,8.50
2017-08-01T16:16:11.277Z,9.30
2017-08-01T16:18:40.304Z,9.30
2017-08-01T16:21:08.667Z,8.27
2017-08-01T16:23:37.012Z,10.10
2017-08-01T16:26:06.677Z,8.50
2017-08-01T16:28:35.006Z,10.07
2017-08-01T16:31:03.322Z,8.43
2017-08-01T16:33:32.116Z,11.30
2017-08-01T16:36:00.488Z,9.77
2017-08-01T16:38:28.858Z,11.00
2017-08-01T16:40:57.597Z,10.10
2017-08-01T16:43:26.705Z,10.70
2017-08-01T16:45:55.822Z,10.23
2017-08-01T16:48:24.588Z,10.67
2017-08-01T16:50:52.935Z,11.20
2017-08-01T16:53:21.283Z,10.87
2017-08-01T16:55:50.262Z,10.17
2017-08-01T16:58:18.597Z,10.73
2017-08-01T17:00:46.958Z,10.87
2017-08-01T17:03:15.702Z,11.00
2017-08-01T17:05:44.061Z,10.20
2017-08-01T17:08:13.174Z,10.57
2017-08-01T17:10:41.970Z,10.93
2017-08-01T17:13:10.305Z,11.20
2017-08-01T17:15:38.664Z,10.17
2017-08-01T17:18:07.476Z,10.77
2017-08-01T17:20:35.815Z,11.83
2017-08-01T17:23:04.171Z,11.60
2017-08-01T17:25:32.808Z,11.20
2017-08-01T17:28:01.167Z,11.63
2017-08-01T17:30:29.502Z,10.37
2017-08-01T17:32:58.949Z,10.13
2017-08-01T17:35:27.294Z,11.20
2017-08-01T17:37:55.655Z,11.97
2017-08-01T17:40:24.466Z,11.87
2017-08-01T17:42:52.819Z,11.07
2017-08-01T17:45:21.200Z,10.53
2017-08-01T17:49:09.904Z,12.37
2017-08-01T17:51:38.282Z,11.70
2017-08-01T17:54:06.640Z,12.50
2017-08-01T17:56:35.485Z,11.00
2017-08-01T17:59:03.834Z,13.27
2017-08-01T18:01:32.213Z,11.53
2017-08-01T18:04:01.001Z,12.27
2017-08-01T18:06:29.359Z,12.17
2017-08-01T18:08:57.713Z,12.60
2017-08-01T18:11:26.413Z,13.10
2017-08-01T18:13:54.779Z,10.50
2017-08-01T18:16:23.143Z,11.80
2017-08-01T18:18:51.876Z,12.07
2017-08-01T18:21:20.285Z,12.07
2017-08-01T18:23:49.831Z,10.20
2017-08-01T18:26:18.581Z,9.57
2017-08-01T18:28:46.987Z,11.40
2017-08-01T18:31:15.356Z,10.90
2017-08-01T18:33:44.021Z,11.43
2017-08-01T18:36:12.383Z,11.30
2017-08-01T18:38:40.731Z,10.60
2017-08-01T18:41:09.618Z,10.83
2017-08-01T18:43:37.989Z,11.10
2017-08-01T18:46:06.367Z,12.13
2017-08-01T18:48:35.355Z,12.27
2017-08-01T18:51:04.623Z,11.50
2017-08-01T18:53:33.089Z,11.50
2017-08-01T18:56:01.834Z,11.13
2017-08-01T18:58:31.055Z,12.40
2017-08-01T19:00:59.417Z,11.83
2017-08-01T19:03:28.393Z,14.00
2017-08-01T19:05:56.810Z,12.13
2017-08-01T19:08:25.154Z,12.17
2017-08-01T19:10:53.893Z,12.60
2017-08-01T19:13:22.248Z,12.13
2017-08-01T19:15:50.640Z,11.90
2017-08-01T19:18:19.541Z,12.07
2017-08-01T19:20:47.909Z,11.90
2017-08-01T19:23:16.268Z,11.93
2017-08-01T19:25:45.235Z,13.27
2017-08-01T19:30:48.534Z,11.83
2017-08-01T19:33:16.916Z,12.80
2017-08-01T19:35:45.282Z,12.70
2017-08-01T19:38:13.970Z,12.23
2017-08-01T19:40:42.366Z,12.87
2017-08-01T19:43:10.721Z,12.30
2017-08-01T19:45:39.410Z,11.87
2017-08-01T19:48:07.745Z,12.40
2017-08-01T19:50:36.098Z,11.90
2017-08-01T19:53:04.793Z,11.63
2017-08-01T19:55:33.177Z,12.53
2017-08-01T19:58:02.292Z,12.53
2017-08-01T20:00:30.980Z,12.23
2017-08-01T20:02:59.320Z,14.10
2017-08-01T20:05:27.688Z,11.90
2017-08-01T20:07:56.761Z,13.90
2017-08-01T20:10:25.245Z,12.63
2017-08-01T20:12:53.592Z,12.30
2017-08-01T20:15:22.400Z,12.33
2017-08-01T20:17:51.657Z,13.00
2017-08-01T20:20:20.014Z,11.20
2017-08-01T20:22:48.882Z,12.90
2017-08-01T20:25:17.213Z,12.60
2017-08-01T20:27:45.562Z,13.00
2017-08-01T20:30:15.131Z,12.87
2017-08-01T20:32:43.486Z,13.37
2017-08-01T20:35:11.846Z,13.60
2017-08-01T20:37:40.618Z,12.80
2017-08-01T20:40:09.002Z,12.50
2017-08-01T20:42:37.356Z,12.20
2017-08-01T20:45:06.021Z,13.30
2017-08-01T20:47:34.395Z,12.57
2017-08-01T20:50:02.785Z,13.03
2017-08-01T20:52:31.609Z,12.33
2017-08-01T20:54:59.972Z,12.20
2017-08-01T20:57:28.324Z,13.10
2017-08-01T20:59:57.098Z,11.83
2017-08-01T21:02:25.447Z,12.57
2017-08-01T21:04:53.852Z,12.10
2017-08-01T21:07:22.540Z,12.53
2017-08-01T21:09:50.901Z,13.30
2017-08-01T21:12:19.271Z,12.27
2017-08-01T21:14:47.971Z,13.73
2017-08-01T21:17:16.351Z,12.77
2017-08-01T21:19:45.458Z,12.27
2017-08-01T21:22:14.946Z,12.33
2017-08-01T21:24:43.296Z,14.87
2017-08-01T21:27:11.660Z,15.27
2017-08-01T21:29:40.535Z,17.80
2017-08-01T21:32:08.902Z,16.77
2017-08-01T21:34:37.250Z,18.33
2017-08-01T21:37:06.386Z,18.90
2017-08-01T21:39:34.754Z,19.53
2017-08-01T21:42:03.867Z,19.37
2017-08-01T21:44:32.652Z,21.93
2017-08-01T21:47:00.990Z,19.80
2017-08-01T21:49:29.344Z,20.03
2017-08-01T21:51:58.108Z,20.00
2017-08-01T21:54:26.443Z,19.97
2017-08-01T21:56:55.575Z,20.97
2017-08-01T21:59:24.253Z,21.50
2017-08-01T22:01:52.618Z,21.77
2017-08-01T22:04:20.987Z,22.83
2017-08-01T22:06:49.684Z,22.40
2017-08-01T22:09:18.033Z,21.50
2017-08-01T22:11:46.390Z,21.10
2017-08-01T22:14:15.008Z,21.20
2017-08-01T22:16:43.370Z,21.53
2017-08-01T22:19:11.701Z,21.40
2017-08-01T22:21:40.374Z,21.43
2017-08-01T22:24:09.482Z,20.90
2017-08-01T22:26:37.826Z,20.27
2017-08-01T22:29:06.496Z,21.60
2017-08-01T22:31:34.868Z,20.73
2017-08-01T22:34:03.227Z,20.73
2017-08-01T22:36:32.218Z,19.13
2017-08-01T22:39:00.569Z,18.90
2017-08-01T22:41:29.696Z,18.30
2017-08-01T22:43:58.510Z,17.53
2017-08-01T22:46:26.860Z,15.33
2017-08-01T22:48:55.238Z,16.97
2017-08-01T22:51:24.124Z,15.30
2017-08-01T22:53:52.471Z,14.80
2017-08-01T22:56:21.568Z,15.07
2017-08-01T22:58:51.199Z,14.70
2017-08-01T23:01:19.574Z,14.97
2017-08-01T23:03:47.926Z,14.23
2017-08-01T23:06:16.849Z,13.17
2017-08-01T23:08:45.192Z,11.90
2017-08-01T23:11:13.530Z,12.43
2017-08-01T23:13:42.262Z,10.83
2017-08-01T23:16:10.605Z,12.50
2017-08-01T23:18:38.969Z,11.47
2017-08-01T23:21:07.738Z,11.73
2017-08-01T23:23:36.087Z,12.10
2017-08-01T23:26:04.438Z,11.37
2017-08-01T23:28:33.164Z,12.10
2017-08-01T23:31:01.548Z,11.30
2017-08-01T23:33:29.892Z,11.90
2017-08-01T23:35:58.616Z,12.60
2017-08-01T23:38:26.969Z,11.30
2017-08-01T23:40:55.328Z,12.80
2017-08-01T23:43:24.278Z,10.93
2017-08-01T23:45:52.621Z,12.20
2017-08-01T23:48:20.966Z,14.10
2017-08-01T23:50:49.919Z,13.20
2017-08-01T23:53:18.278Z,12.53
2017-08-01T23:55:46.662Z,13.03
2017-08-01T23:58:15.295Z,14.67
